• Join FlightAware (Why Join?)
  • Login
  • US Flag 
05:30PM EDT


 

Airport Tracker/Info


-or-


 

Live Flight TrackerFlight Track Log ✈ DAL454 ✈ 15-Mar-2014 ✈ KJFK - TIST / STT

Flight Track Log - Related Links

Times and Time Zones

All times are in EDT time to prevent confusion due to time zone crossing. See the DAL454 flight status page for this flight to view local times or setup timezone preferences in your user account.

Time Position Orientation Groundspeed Altitude Reporting Facility
EDT Latitude Longitude Course Direction KTS MPH feet Rate Location/Type
09:00AM 40.3605 -73.2990 131° Southeast  Level FlightAware Approximate
09:01AM 40.2814 -73.1742 128° Southeast  Level FlightAware Approximate
09:02AM 40.2050 -73.0465 128° Southeast  Level FlightAware Approximate
09:02AM 40.3803 -73.4071 136° Southeast 361 415 13,900  Level FlightAware ADS-B (KSNC)
09:02AM 40.3298 -73.3434 136° Southeast 373 429 15,400 2,400 Climbing FlightAware ADS-B (KSNC)
09:03AM 40.2892 -73.2930 137° Southeast 379 436 16,800 2,580 Climbing FlightAware ADS-B (KSNC)
09:03AM 40.2357 -73.2269 137° Southeast 388 447 18,500 2,280 Climbing FlightAware ADS-B (KSNC)
09:04AM 40.1962 -73.1782 137° Southeast 399 459 19,500 1,920 Climbing FlightAware ADS-B (KSNC)
09:04AM 40.1535 -73.1255 137° Southeast 411 473 20,500 1,920 Climbing FlightAware ADS-B (KSNC)
09:05AM 40.0916 -73.0492 137° Southeast 422 486 21,900 1,800 Climbing FlightAware ADS-B (KSNC)
09:06AM 40.0440 -72.9907 137° Southeast 434 499 22,900 900 Climbing FlightAware ADS-B (KSNC)
09:06AM 39.9880 -72.9222 137° Southeast 448 516 23,000 1,140 Climbing FlightAware ADS-B (KSNC)
09:07AM 39.9250 -72.8449 137° Southeast 442 509 24,400 1,980 Climbing FlightAware ADS-B (KSNC)
09:08AM 39.8714 -72.7796 137° Southeast 446 513 25,500 1,620 Climbing FlightAware ADS-B (KSNC)
09:08AM 39.8255 -72.7239 137° Southeast 456 525 26,200 1,380 Climbing FlightAware ADS-B (KSNC)
09:09AM 39.7690 -72.6553 137° Southeast 465 535 27,100 1,500 Climbing FlightAware ADS-B (KSNC)
09:10AM 39.7022 -72.5742 137° Southeast 467 537 28,300 1,500 Climbing FlightAware ADS-B (KSNC)
09:10AM 39.6281 -72.4848 137° Southeast 478 550 29,300 1,500 Climbing FlightAware ADS-B (KSNC)
09:11AM 39.5322 -72.3692 137° Southeast 476 548 31,100 1,500 Climbing FlightAware ADS-B (KSNC)
09:12AM 39.4664 -72.2928 137° Southeast 475 547 31,900 1,020 Climbing New York Center
09:13AM 39.3678 -72.1725 137° Southeast 475 547 32,800 1,200 Climbing New York Center
09:14AM 39.2714 -72.0525 136° Southeast 481 554 34,400 1,500 Climbing New York Center
09:15AM 39.1703 -71.9408 139° Southeast 486 559 35,900 1,260 Climbing New York Center
09:16AM 39.0733 -71.8294 138° Southeast 481 554 37,000 540 Climbing New York Center
09:17AM 38.9764 -71.7106 136° Southeast 475 547 37,000  Level New York Center
09:18AM 38.8794 -71.5944 137° Southeast 475 547 37,000  Level New York Center
09:19AM 38.7781 -71.4789 138° Southeast 480 552 37,000  Level New York Center
09:20AM 38.6808 -71.3608 137° Southeast 480 552 37,000  Level New York Center
09:21AM 38.5811 -71.2483 139° Southeast 480 552 37,000  Level New York Center
09:22AM 38.4836 -71.1361 138° Southeast 480 552 37,000  Level New York Center
09:23AM 38.3858 -71.0217 137° Southeast 480 552 37,000  Level New York Center
09:24AM 38.2881 -70.9156 140° Southeast 475 547 37,000  Level New York Center
09:25AM 38.1922 -70.8042 138° Southeast 475 547 37,000  Level New York Center
09:26AM 38.0944 -70.6906 138° Southeast 475 547 37,000  Level New York Center
09:27AM 37.9919 -70.5853 141° Southeast 470 541 37,000  Level New York Center
09:28AM 37.8792 -70.5067 151° Southeast 462 532 37,000  Level New York Center
09:28AM 38.0000 -70.5833 153° Southeast 460 529 37,000  Level New York Oceanic (ODAPS)
09:29AM 37.7664 -70.4281 153° Southeast 467 537 37,000  Level New York Center
09:30AM 37.6453 -70.3603 156° South 467 537 37,000  Level New York Center
09:31AM 37.5325 -70.2850 152° Southeast 467 537 37,000  Level New York Center
09:32AM 37.4153 -70.2125 154° Southeast 467 537 37,000  Level New York Center
09:44AM 36.1667 -69.4500 143° Southeast 480 552 37,000  Level New York Oceanic (ODAPS)
09:56AM 34.7725 -68.1592 144° Southeast 476 548 37,000  Level New York Center
09:57AM 34.6712 -68.0656 143° Southeast 480 552 37,000  Level FlightAware Transoceanic
09:57AM 34.6642 -68.0617 143° Southeast 492 566 37,000  Level New York Center
09:58AM 34.5638 -67.9686 143° Southeast 480 552 37,000  Level FlightAware Transoceanic
09:58AM 34.5517 -67.9822 150° Southeast 500 575 37,000  Level New York Center
09:59AM 34.4563 -67.8719 143° Southeast 480 552 37,000  Level FlightAware Transoceanic
09:59AM 34.4406 -67.8678 140° Southeast 495 570 37,000  Level New York Center
10:00AM 34.3487 -67.7755 144° Southeast 480 552 37,000  Level FlightAware Transoceanic
10:00AM 34.3317 -67.7683 143° Southeast 489 563 37,000  Level New York Center
10:01AM 34.2314 -67.6817 144° Southeast 489 563 37,000  Level New York Center
10:02AM 34.0997 -67.5939 151° Southeast 489 563 37,000  Level New York Center
10:03AM 34.0031 -67.5575 163° South 447 514 37,000  Level New York Center
10:04AM 33.8522 -67.5383 174° South 464 534 37,000  Level New York Center
10:05AM 33.7325 -67.5081 168° South 465 535 37,000  Level New York Center
10:06AM 33.6194 -67.4850 170° South 465 535 37,000  Level New York Center
10:07AM 33.4747 -67.4558 170° South 460 529 37,000  Level New York Center
10:08AM 33.3531 -67.4283 169° South 466 536 37,000  Level New York Center
10:09AM 33.2397 -67.4056 170° South 462 532 37,000  Level New York Center
10:10AM 33.0972 -67.3764 170° South 452 520 37,000  Level New York Center
10:12AM 32.8456 -67.3222 170° South 464 534 37,000  Level New York Center
10:13AM 32.7156 -67.2956 170° South 469 540 37,000  Level New York Center
10:20AM 31.7953 -67.1081 171° South 477 549 37,000  Level New York Center
10:27AM 30.8942 -66.9281 167° South 480 552 37,000  Level New York Center
10:28AM 30.7453 -66.8933 169° South 479 551 37,000  Level New York Center
10:31AM 30.3494 -66.8122 172° South 486 559 37,000  Level New York Center
10:32AM 30.3455 -66.8055 167° South  Level FlightAware Approximate
10:33AM 30.0875 -66.7614 170° South 489 563 37,000  Level New York Center
11:23AM 23.5000 -65.5333 165° South 473 544 37,000  Level New York Oceanic (ODAPS)
11:35AM 21.8167 -65.0833 166° South 470 541 37,000  Level San Juan Center
11:36AM 21.7313 -65.0329 166° South 473 544 37,000  Level FlightAware Transoceanic
11:36AM 21.7000 -65.0833 180° South 600 690 37,000  Level San Juan Center
11:37AM 21.6084 -64.9995 166° South 473 544 37,000  Level FlightAware Transoceanic
11:37AM 21.5667 -65.0333 161° South 560 644 37,000  Level San Juan Center
11:38AM 21.4855 -64.9662 166° South 473 544 37,000  Level FlightAware Transoceanic
11:38AM 21.4333 -65.0500 187° South 460 529 37,000  Level San Juan Center
11:39AM 21.3625 -64.9330 166° South 473 544 37,000  Level FlightAware Transoceanic
11:39AM 21.3167 -65.0667 188° South 520 598 37,000  Level San Juan Center
11:40AM 21.2396 -64.8998 166° South 473 544 37,000  Level FlightAware Transoceanic
11:40AM 21.1833 -65.0833 187° South 450 518 37,000  Level San Juan Center
11:41AM 21.0667 -65.1000 188° South 450 518 37,000  Level San Juan Center
11:42AM 20.9333 -65.1000 180° South 490 564 37,000  Level San Juan Center
11:43AM 20.8167 -65.1167 188° South 450 518 37,000  Level San Juan Center
11:44AM 20.6833 -65.1333 187° South 450 518 37,000  Level San Juan Center
11:45AM 20.5500 -65.1500 187° South 460 529 37,000  Level San Juan Center
11:46AM 20.4333 -65.1667 188° South 450 518 37,000 -780 Level San Juan Center
11:47AM 20.3000 -65.1833 187° South 460 529 35,500 -1,560 Descending San Juan Center
11:48AM 20.1667 -65.1833 180° South 470 541 33,900 -1,620 Descending San Juan Center
11:49AM 20.0333 -65.2000 187° South 480 552 32,300 -1,500 Descending San Juan Center
11:50AM 19.9000 -65.2167 187° South 490 564 30,900 -1,260 Descending San Juan Center
11:51AM 19.7667 -65.2333 187° South 480 552 29,800 -1,320 Descending San Juan Center
11:52AM 19.6333 -65.2500 187° South 480 552 28,300 -2,340 Descending San Juan Center
11:53AM 19.5000 -65.2667 187° South 480 552 25,100 -3,120 Descending San Juan Center
11:54AM 19.3667 -65.2833 187° South 480 552 22,100 -2,640 Descending San Juan Center
11:55AM 19.2333 -65.3000 187° South 470 541 19,800 -2,460 Descending San Juan Center
11:56AM 19.1167 -65.3000 180° South 440 506 17,200 -2,580 Descending San Juan Center
11:57AM 18.9833 -65.3167 187° South 420 483 14,700 -2,460 Descending San Juan Center
11:58AM 18.8667 -65.3333 188° South 400 460 12,300 -1,740 Descending San Juan Center
11:59AM 18.7667 -65.3500 189° South 370 426 11,300 -900 Descending San Juan Center
12:00PM 18.6667 -65.3500 180° South 320 368 10,500 -1,260 Descending San Juan Center
12:01PM 18.5833 -65.3500 180° South 300 345 8,800 -1,800 Descending San Juan Center
12:02PM 18.5000 -65.3333 169° South 270 311 7,000 -1,200 Descending San Juan Center
12:03PM 18.4500 -65.3000 148° Southeast 260 299 6,500 -480 Descending San Juan Center
12:04PM 18.4000 -65.2500 136° Southeast 260 299 6,100 -600 Descending San Juan Center
12:05PM 18.3500 -65.2000 136° Southeast 220 253 5,300 -1,140 Descending San Juan Center
12:07PM 18.3167 -65.1667 136° Southeast 180 207 3,900 -1,440 Descending San Juan Center
12:08PM 18.3167 -65.1167 90° East 160 184 2,500 -1,140 Descending San Juan Center
12:09PM 18.3333 -65.0667 71° East 150 173 1,700 -780 Descending San Juan Center
12:10PM 18.3167 -65.0333 118° Southeast 150 173 1,000 -720 Descending San Juan Center